sensor_id;sensor_type;location;lat;lon;timestamp;P1;durP1;ratioP1;P2;durP2;ratioP2
8654;SDS011;13500;52.514;13.462;2023-06-10T00:01:55;7.47;;;4.40;;
8654;SDS011;13500;52.514;13.462;2023-06-10T00:04:26;9.00;;;4.57;;
8654;SDS011;13500;52.514;13.462;2023-06-10T00:06:54;9.20;;;4.60;;
8654;SDS011;13500;52.514;13.462;2023-06-10T00:09:25;9.13;;;4.83;;
8654;SDS011;13500;52.514;13.462;2023-06-10T00:11:53;8.67;;;4.50;;
8654;SDS011;13500;52.514;13.462;2023-06-10T00:14:26;8.97;;;4.67;;
8654;SDS011;13500;52.514;13.462;2023-06-10T00:16:54;7.27;;;4.17;;
8654;SDS011;13500;52.514;13.462;2023-06-10T00:19:23;7.63;;;4.20;;
8654;SDS011;13500;52.514;13.462;2023-06-10T00:21:52;8.30;;;4.37;;
8654;SDS011;13500;52.514;13.462;2023-06-10T00:24:20;10.33;;;4.60;;
8654;SDS011;13500;52.514;13.462;2023-06-10T00:26:49;7.33;;;4.57;;
8654;SDS011;13500;52.514;13.462;2023-06-10T00:29:19;8.47;;;4.70;;
8654;SDS011;13500;52.514;13.462;2023-06-10T00:31:47;7.73;;;4.37;;
8654;SDS011;13500;52.514;13.462;2023-06-10T00:34:15;9.00;;;4.67;;
8654;SDS011;13500;52.514;13.462;2023-06-10T00:36:44;8.97;;;4.40;;
8654;SDS011;13500;52.514;13.462;2023-06-10T00:39:12;7.97;;;4.60;;
8654;SDS011;13500;52.514;13.462;2023-06-10T00:41:40;9.83;;;5.00;;
8654;SDS011;13500;52.514;13.462;2023-06-10T00:44:10;11.63;;;4.93;;
8654;SDS011;13500;52.514;13.462;2023-06-10T00:46:37;8.03;;;4.30;;
8654;SDS011;13500;52.514;13.462;2023-06-10T00:49:06;13.90;;;4.70;;
8654;SDS011;13500;52.514;13.462;2023-06-10T00:51:36;9.37;;;4.30;;
8654;SDS011;13500;52.514;13.462;2023-06-10T00:54:04;7.47;;;4.70;;
8654;SDS011;13500;52.514;13.462;2023-06-10T00:56:32;10.43;;;4.27;;
8654;SDS011;13500;52.514;13.462;2023-06-10T00:59:02;8.40;;;4.70;;
8654;SDS011;13500;52.514;13.462;2023-06-10T01:01:31;12.23;;;4.90;;
8654;SDS011;13500;52.514;13.462;2023-06-10T01:04:01;9.73;;;4.47;;
8654;SDS011;13500;52.514;13.462;2023-06-10T01:06:34;9.20;;;4.30;;
8654;SDS011;13500;52.514;13.462;2023-06-10T01:09:06;8.97;;;4.60;;
8654;SDS011;13500;52.514;13.462;2023-06-10T01:11:40;7.47;;;4.50;;
8654;SDS011;13500;52.514;13.462;2023-06-10T01:14:11;8.40;;;4.47;;
8654;SDS011;13500;52.514;13.462;2023-06-10T01:16:42;8.63;;;4.73;;
8654;SDS011;13500;52.514;13.462;2023-06-10T01:19:12;9.10;;;4.33;;
8654;SDS011;13500;52.514;13.462;2023-06-10T01:21:42;9.93;;;4.60;;
8654;SDS011;13500;52.514;13.462;2023-06-10T01:24:18;8.00;;;4.57;;
8654;SDS011;13500;52.514;13.462;2023-06-10T01:26:46;12.27;;;4.67;;
8654;SDS011;13500;52.514;13.462;2023-06-10T01:29:19;8.53;;;4.50;;
8654;SDS011;13500;52.514;13.462;2023-06-10T01:31:48;9.27;;;4.40;;
8654;SDS011;13500;52.514;13.462;2023-06-10T01:34:19;7.97;;;4.73;;
8654;SDS011;13500;52.514;13.462;2023-06-10T01:36:50;8.73;;;4.53;;
8654;SDS011;13500;52.514;13.462;2023-06-10T01:39:20;10.50;;;5.10;;
8654;SDS011;13500;52.514;13.462;2023-06-10T01:41:49;9.77;;;4.77;;
8654;SDS011;13500;52.514;13.462;2023-06-10T01:44:18;9.13;;;4.70;;
8654;SDS011;13500;52.514;13.462;2023-06-10T01:46:46;9.17;;;4.77;;
8654;SDS011;13500;52.514;13.462;2023-06-10T01:49:15;10.07;;;4.93;;
8654;SDS011;13500;52.514;13.462;2023-06-10T01:51:43;7.07;;;4.50;;
8654;SDS011;13500;52.514;13.462;2023-06-10T01:54:12;10.07;;;4.70;;
8654;SDS011;13500;52.514;13.462;2023-06-10T01:56:40;10.93;;;5.20;;
8654;SDS011;13500;52.514;13.462;2023-06-10T01:59:08;10.43;;;4.57;;
8654;SDS011;13500;52.514;13.462;2023-06-10T02:01:36;9.57;;;4.60;;
8654;SDS011;13500;52.514;13.462;2023-06-10T02:04:04;8.07;;;4.93;;
8654;SDS011;13500;52.514;13.462;2023-06-10T02:06:33;8.13;;;4.33;;
8654;SDS011;13500;52.514;13.462;2023-06-10T02:09:02;7.87;;;4.90;;
8654;SDS011;13500;52.514;13.462;2023-06-10T02:11:32;7.73;;;4.40;;
8654;SDS011;13500;52.514;13.462;2023-06-10T02:14:00;10.13;;;4.93;;
8654;SDS011;13500;52.514;13.462;2023-06-10T02:16:28;8.47;;;4.47;;
8654;SDS011;13500;52.514;13.462;2023-06-10T02:18:56;6.50;;;4.43;;
8654;SDS011;13500;52.514;13.462;2023-06-10T02:21:24;8.00;;;4.33;;
8654;SDS011;13500;52.514;13.462;2023-06-10T02:23:52;8.90;;;4.27;;
8654;SDS011;13500;52.514;13.462;2023-06-10T02:26:20;12.70;;;5.50;;
8654;SDS011;13500;52.514;13.462;2023-06-10T02:28:50;8.53;;;4.27;;
8654;SDS011;13500;52.514;13.462;2023-06-10T02:31:18;8.73;;;4.80;;
8654;SDS011;13500;52.514;13.462;2023-06-10T02:33:46;7.23;;;4.40;;
8654;SDS011;13500;52.514;13.462;2023-06-10T02:36:15;9.93;;;4.47;;
8654;SDS011;13500;52.514;13.462;2023-06-10T02:38:43;8.43;;;4.73;;
8654;SDS011;13500;52.514;13.462;2023-06-10T02:41:11;8.83;;;4.80;;
8654;SDS011;13500;52.514;13.462;2023-06-10T02:43:40;10.10;;;5.10;;
8654;SDS011;13500;52.514;13.462;2023-06-10T02:46:10;9.33;;;4.63;;
8654;SDS011;13500;52.514;13.462;2023-06-10T02:48:41;8.63;;;4.60;;
8654;SDS011;13500;52.514;13.462;2023-06-10T02:51:12;10.40;;;5.13;;
8654;SDS011;13500;52.514;13.462;2023-06-10T02:53:44;9.67;;;5.07;;
8654;SDS011;13500;52.514;13.462;2023-06-10T02:56:15;8.63;;;4.87;;
8654;SDS011;13500;52.514;13.462;2023-06-10T02:58:44;10.57;;;5.00;;
8654;SDS011;13500;52.514;13.462;2023-06-10T03:01:15;9.37;;;5.07;;
8654;SDS011;13500;52.514;13.462;2023-06-10T03:03:57;8.70;;;4.70;;
8654;SDS011;13500;52.514;13.462;2023-06-10T03:06:25;7.10;;;4.47;;
8654;SDS011;13500;52.514;13.462;2023-06-10T03:09:02;8.93;;;5.07;;
8654;SDS011;13500;52.514;13.462;2023-06-10T03:11:30;12.00;;;5.20;;
8654;SDS011;13500;52.514;13.462;2023-06-10T03:13:59;10.20;;;4.90;;
8654;SDS011;13500;52.514;13.462;2023-06-10T03:16:30;9.90;;;4.97;;
8654;SDS011;13500;52.514;13.462;2023-06-10T03:18:59;11.53;;;5.07;;
8654;SDS011;13500;52.514;13.462;2023-06-10T03:21:27;8.83;;;4.83;;
8654;SDS011;13500;52.514;13.462;2023-06-10T03:23:57;11.60;;;4.87;;
8654;SDS011;13500;52.514;13.462;2023-06-10T03:26:25;11.13;;;5.10;;
8654;SDS011;13500;52.514;13.462;2023-06-10T03:28:54;9.53;;;5.07;;
8654;SDS011;13500;52.514;13.462;2023-06-10T03:31:24;9.33;;;5.33;;
8654;SDS011;13500;52.514;13.462;2023-06-10T03:33:55;7.37;;;5.17;;
8654;SDS011;13500;52.514;13.462;2023-06-10T03:36:22;8.77;;;5.07;;
8654;SDS011;13500;52.514;13.462;2023-06-10T03:38:50;11.63;;;5.73;;
8654;SDS011;13500;52.514;13.462;2023-06-10T03:41:20;8.30;;;5.13;;
8654;SDS011;13500;52.514;13.462;2023-06-10T03:43:50;11.37;;;5.57;;
8654;SDS011;13500;52.514;13.462;2023-06-10T03:46:21;10.10;;;5.40;;
8654;SDS011;13500;52.514;13.462;2023-06-10T03:48:49;9.37;;;5.17;;
8654;SDS011;13500;52.514;13.462;2023-06-10T03:51:18;11.00;;;5.23;;
8654;SDS011;13500;52.514;13.462;2023-06-10T03:53:46;10.23;;;5.47;;
8654;SDS011;13500;52.514;13.462;2023-06-10T03:56:15;10.33;;;5.30;;
8654;SDS011;13500;52.514;13.462;2023-06-10T03:58:42;9.23;;;4.80;;
8654;SDS011;13500;52.514;13.462;2023-06-10T04:01:13;8.17;;;5.10;;
8654;SDS011;13500;52.514;13.462;2023-06-10T04:03:41;8.33;;;5.37;;
8654;SDS011;13500;52.514;13.462;2023-06-10T04:06:10;8.77;;;5.43;;
8654;SDS011;13500;52.514;13.462;2023-06-10T04:08:40;7.97;;;4.87;;
8654;SDS011;13500;52.514;13.462;2023-06-10T04:11:08;10.03;;;5.17;;
8654;SDS011;13500;52.514;13.462;2023-06-10T04:13:37;9.20;;;5.33;;
8654;SDS011;13500;52.514;13.462;2023-06-10T04:16:05;10.37;;;5.53;;
8654;SDS011;13500;52.514;13.462;2023-06-10T04:18:33;8.20;;;5.17;;
8654;SDS011;13500;52.514;13.462;2023-06-10T04:21:05;7.40;;;5.53;;
8654;SDS011;13500;52.514;13.462;2023-06-10T04:23:34;9.63;;;5.40;;
8654;SDS011;13500;52.514;13.462;2023-06-10T04:26:04;7.97;;;5.00;;
8654;SDS011;13500;52.514;13.462;2023-06-10T04:28:33;10.00;;;5.90;;
8654;SDS011;13500;52.514;13.462;2023-06-10T04:31:03;9.20;;;5.60;;
8654;SDS011;13500;52.514;13.462;2023-06-10T04:33:31;13.47;;;6.07;;
8654;SDS011;13500;52.514;13.462;2023-06-10T04:36:02;8.80;;;5.90;;
8654;SDS011;13500;52.514;13.462;2023-06-10T04:38:30;9.43;;;5.60;;
8654;SDS011;13500;52.514;13.462;2023-06-10T04:40:59;8.87;;;5.10;;
8654;SDS011;13500;52.514;13.462;2023-06-10T04:43:31;9.90;;;5.90;;
8654;SDS011;13500;52.514;13.462;2023-06-10T04:46:00;10.87;;;5.47;;
8654;SDS011;13500;52.514;13.462;2023-06-10T04:48:29;10.63;;;5.23;;
8654;SDS011;13500;52.514;13.462;2023-06-10T04:50:58;10.03;;;5.73;;
8654;SDS011;13500;52.514;13.462;2023-06-10T04:53:27;9.30;;;5.37;;
8654;SDS011;13500;52.514;13.462;2023-06-10T04:55:56;9.00;;;5.53;;
8654;SDS011;13500;52.514;13.462;2023-06-10T04:58:24;9.37;;;5.07;;
8654;SDS011;13500;52.514;13.462;2023-06-10T05:00:54;9.83;;;5.60;;
8654;SDS011;13500;52.514;13.462;2023-06-10T05:03:23;8.10;;;4.93;;
8654;SDS011;13500;52.514;13.462;2023-06-10T05:05:52;10.77;;;5.43;;
8654;SDS011;13500;52.514;13.462;2023-06-10T05:08:20;9.23;;;5.53;;
8654;SDS011;13500;52.514;13.462;2023-06-10T05:10:48;8.40;;;5.23;;
8654;SDS011;13500;52.514;13.462;2023-06-10T05:13:16;8.53;;;5.53;;
8654;SDS011;13500;52.514;13.462;2023-06-10T05:15:46;7.73;;;5.53;;
8654;SDS011;13500;52.514;13.462;2023-06-10T05:18:16;8.90;;;5.40;;
8654;SDS011;13500;52.514;13.462;2023-06-10T05:20:44;9.93;;;5.73;;
8654;SDS011;13500;52.514;13.462;2023-06-10T05:23:13;11.00;;;5.67;;
8654;SDS011;13500;52.514;13.462;2023-06-10T05:25:41;6.90;;;5.33;;
8654;SDS011;13500;52.514;13.462;2023-06-10T05:28:09;10.60;;;5.37;;
8654;SDS011;13500;52.514;13.462;2023-06-10T05:30:41;9.27;;;5.63;;
8654;SDS011;13500;52.514;13.462;2023-06-10T05:33:10;7.60;;;5.30;;
8654;SDS011;13500;52.514;13.462;2023-06-10T05:35:40;9.57;;;5.40;;
8654;SDS011;13500;52.514;13.462;2023-06-10T05:38:08;9.33;;;5.60;;
8654;SDS011;13500;52.514;13.462;2023-06-10T05:40:37;7.90;;;5.37;;
8654;SDS011;13500;52.514;13.462;2023-06-10T05:43:05;10.53;;;5.23;;
8654;SDS011;13500;52.514;13.462;2023-06-10T05:45:34;9.77;;;5.67;;
8654;SDS011;13500;52.514;13.462;2023-06-10T05:48:07;8.53;;;5.83;;
8654;SDS011;13500;52.514;13.462;2023-06-10T05:50:35;9.13;;;4.90;;
8654;SDS011;13500;52.514;13.462;2023-06-10T05:53:06;10.63;;;5.27;;
8654;SDS011;13500;52.514;13.462;2023-06-10T05:55:41;8.93;;;6.10;;
8654;SDS011;13500;52.514;13.462;2023-06-10T05:58:09;9.57;;;5.50;;
8654;SDS011;13500;52.514;13.462;2023-06-10T06:00:38;11.20;;;5.43;;
8654;SDS011;13500;52.514;13.462;2023-06-10T06:03:09;9.93;;;5.87;;
8654;SDS011;13500;52.514;13.462;2023-06-10T06:05:37;10.53;;;5.80;;
8654;SDS011;13500;52.514;13.462;2023-06-10T06:08:07;12.03;;;5.33;;
8654;SDS011;13500;52.514;13.462;2023-06-10T06:10:36;9.63;;;5.30;;
8654;SDS011;13500;52.514;13.462;2023-06-10T06:13:05;8.47;;;5.37;;
8654;SDS011;13500;52.514;13.462;2023-06-10T06:15:35;7.97;;;5.20;;
8654;SDS011;13500;52.514;13.462;2023-06-10T06:18:03;7.27;;;5.60;;
8654;SDS011;13500;52.514;13.462;2023-06-10T06:20:31;7.17;;;5.73;;
8654;SDS011;13500;52.514;13.462;2023-06-10T06:22:59;6.80;;;5.73;;
8654;SDS011;13500;52.514;13.462;2023-06-10T06:25:32;9.67;;;5.40;;
8654;SDS011;13500;52.514;13.462;2023-06-10T06:28:00;7.40;;;5.60;;
8654;SDS011;13500;52.514;13.462;2023-06-10T06:30:28;6.10;;;5.13;;
8654;SDS011;13500;52.514;13.462;2023-06-10T06:33:01;7.27;;;5.60;;
8654;SDS011;13500;52.514;13.462;2023-06-10T06:35:32;5.73;;;5.13;;
8654;SDS011;13500;52.514;13.462;2023-06-10T06:38:00;10.47;;;5.73;;
8654;SDS011;13500;52.514;13.462;2023-06-10T06:40:33;10.63;;;5.33;;
8654;SDS011;13500;52.514;13.462;2023-06-10T06:43:01;12.27;;;5.43;;
8654;SDS011;13500;52.514;13.462;2023-06-10T06:45:56;9.77;;;5.60;;
8654;SDS011;13500;52.514;13.462;2023-06-10T06:48:24;8.50;;;5.90;;
8654;SDS011;13500;52.514;13.462;2023-06-10T06:50:52;9.73;;;5.23;;
8654;SDS011;13500;52.514;13.462;2023-06-10T06:53:20;8.40;;;5.73;;
8654;SDS011;13500;52.514;13.462;2023-06-10T06:55:50;7.53;;;5.47;;
8654;SDS011;13500;52.514;13.462;2023-06-10T06:58:19;8.93;;;5.60;;
8654;SDS011;13500;52.514;13.462;2023-06-10T07:00:47;10.07;;;5.80;;
8654;SDS011;13500;52.514;13.462;2023-06-10T07:03:15;7.70;;;5.63;;
8654;SDS011;13500;52.514;13.462;2023-06-10T07:05:43;7.67;;;5.97;;
8654;SDS011;13500;52.514;13.462;2023-06-10T07:08:11;8.43;;;5.87;;
8654;SDS011;13500;52.514;13.462;2023-06-10T07:10:40;9.77;;;5.50;;
8654;SDS011;13500;52.514;13.462;2023-06-10T07:13:09;8.40;;;5.50;;
8654;SDS011;13500;52.514;13.462;2023-06-10T07:15:40;11.87;;;7.43;;
8654;SDS011;13500;52.514;13.462;2023-06-10T07:18:08;6.73;;;5.73;;
8654;SDS011;13500;52.514;13.462;2023-06-10T07:20:42;8.67;;;6.10;;
8654;SDS011;13500;52.514;13.462;2023-06-10T07:23:17;7.37;;;6.53;;
8654;SDS011;13500;52.514;13.462;2023-06-10T07:25:46;8.90;;;6.40;;
8654;SDS011;13500;52.514;13.462;2023-06-10T07:28:15;6.67;;;5.73;;
8654;SDS011;13500;52.514;13.462;2023-06-10T07:30:44;7.80;;;5.93;;
8654;SDS011;13500;52.514;13.462;2023-06-10T07:33:13;9.60;;;6.17;;
8654;SDS011;13500;52.514;13.462;2023-06-10T07:35:42;7.73;;;6.27;;
8654;SDS011;13500;52.514;13.462;2023-06-10T07:38:10;7.50;;;5.67;;
8654;SDS011;13500;52.514;13.462;2023-06-10T07:40:38;8.33;;;5.33;;
8654;SDS011;13500;52.514;13.462;2023-06-10T07:43:06;9.87;;;6.23;;
8654;SDS011;13500;52.514;13.462;2023-06-10T07:45:36;6.50;;;5.73;;
8654;SDS011;13500;52.514;13.462;2023-06-10T07:48:04;10.37;;;5.53;;
8654;SDS011;13500;52.514;13.462;2023-06-10T07:50:32;8.67;;;5.47;;
8654;SDS011;13500;52.514;13.462;2023-06-10T07:53:00;7.73;;;6.10;;
8654;SDS011;13500;52.514;13.462;2023-06-10T07:55:28;10.73;;;5.60;;
8654;SDS011;13500;52.514;13.462;2023-06-10T07:57:56;8.63;;;5.83;;
8654;SDS011;13500;52.514;13.462;2023-06-10T08:00:24;9.37;;;5.97;;
8654;SDS011;13500;52.514;13.462;2023-06-10T08:02:54;10.77;;;5.97;;
8654;SDS011;13500;52.514;13.462;2023-06-10T08:05:22;7.57;;;5.67;;
8654;SDS011;13500;52.514;13.462;2023-06-10T08:07:51;6.93;;;5.20;;
8654;SDS011;13500;52.514;13.462;2023-06-10T08:10:19;8.07;;;6.33;;
8654;SDS011;13500;52.514;13.462;2023-06-10T08:12:47;10.20;;;5.90;;
8654;SDS011;13500;52.514;13.462;2023-06-10T08:15:15;6.90;;;5.87;;
8654;SDS011;13500;52.514;13.462;2023-06-10T08:17:43;6.30;;;5.63;;
8654;SDS011;13500;52.514;13.462;2023-06-10T08:20:12;7.37;;;6.07;;
8654;SDS011;13500;52.514;13.462;2023-06-10T08:22:40;9.10;;;6.47;;
8654;SDS011;13500;52.514;13.462;2023-06-10T08:25:08;8.17;;;6.33;;
8654;SDS011;13500;52.514;13.462;2023-06-10T08:27:37;9.80;;;6.00;;
8654;SDS011;13500;52.514;13.462;2023-06-10T08:30:06;6.70;;;6.10;;
8654;SDS011;13500;52.514;13.462;2023-06-10T08:32:36;7.13;;;6.43;;
8654;SDS011;13500;52.514;13.462;2023-06-10T08:35:04;10.47;;;6.50;;
8654;SDS011;13500;52.514;13.462;2023-06-10T08:37:34;7.77;;;6.07;;
8654;SDS011;13500;52.514;13.462;2023-06-10T08:40:03;8.07;;;6.10;;
8654;SDS011;13500;52.514;13.462;2023-06-10T08:42:33;10.20;;;6.63;;
8654;SDS011;13500;52.514;13.462;2023-06-10T08:45:02;7.13;;;6.13;;
8654;SDS011;13500;52.514;13.462;2023-06-10T08:47:30;7.13;;;5.63;;
8654;SDS011;13500;52.514;13.462;2023-06-10T08:50:01;11.33;;;6.50;;
8654;SDS011;13500;52.514;13.462;2023-06-10T08:52:35;6.77;;;6.03;;
8654;SDS011;13500;52.514;13.462;2023-06-10T08:55:08;7.13;;;6.00;;
8654;SDS011;13500;52.514;13.462;2023-06-10T08:57:38;7.37;;;5.73;;
8654;SDS011;13500;52.514;13.462;2023-06-10T09:00:08;6.80;;;5.57;;
8654;SDS011;13500;52.514;13.462;2023-06-10T09:02:38;6.33;;;5.60;;
8654;SDS011;13500;52.514;13.462;2023-06-10T09:05:06;7.30;;;6.00;;
8654;SDS011;13500;52.514;13.462;2023-06-10T09:07:37;9.30;;;5.80;;
8654;SDS011;13500;52.514;13.462;2023-06-10T09:10:05;8.83;;;5.63;;
8654;SDS011;13500;52.514;13.462;2023-06-10T09:12:35;7.40;;;6.20;;
8654;SDS011;13500;52.514;13.462;2023-06-10T09:15:04;7.37;;;6.10;;
8654;SDS011;13500;52.514;13.462;2023-06-10T09:17:33;7.43;;;5.90;;
8654;SDS011;13500;52.514;13.462;2023-06-10T09:20:02;8.27;;;5.73;;
8654;SDS011;13500;52.514;13.462;2023-06-10T09:22:34;7.67;;;6.13;;
8654;SDS011;13500;52.514;13.462;2023-06-10T09:25:05;8.77;;;5.80;;
8654;SDS011;13500;52.514;13.462;2023-06-10T09:27:43;8.73;;;5.73;;
8654;SDS011;13500;52.514;13.462;2023-06-10T09:30:24;10.77;;;5.63;;
8654;SDS011;13500;52.514;13.462;2023-06-10T09:32:53;7.50;;;5.80;;
8654;SDS011;13500;52.514;13.462;2023-06-10T09:35:23;9.00;;;5.67;;
8654;SDS011;13500;52.514;13.462;2023-06-10T09:37:51;7.73;;;5.50;;
8654;SDS011;13500;52.514;13.462;2023-06-10T09:40:21;6.07;;;5.47;;
8654;SDS011;13500;52.514;13.462;2023-06-10T09:42:52;11.20;;;5.90;;
8654;SDS011;13500;52.514;13.462;2023-06-10T09:45:21;9.70;;;6.00;;
8654;SDS011;13500;52.514;13.462;2023-06-10T09:47:52;7.10;;;5.83;;
8654;SDS011;13500;52.514;13.462;2023-06-10T09:50:22;8.87;;;5.40;;
8654;SDS011;13500;52.514;13.462;2023-06-10T09:52:50;9.77;;;6.17;;
8654;SDS011;13500;52.514;13.462;2023-06-10T09:55:18;10.90;;;6.50;;
8654;SDS011;13500;52.514;13.462;2023-06-10T09:57:52;9.97;;;6.07;;
8654;SDS011;13500;52.514;13.462;2023-06-10T10:00:21;15.03;;;6.20;;
8654;SDS011;13500;52.514;13.462;2023-06-10T10:02:50;10.43;;;5.83;;
8654;SDS011;13500;52.514;13.462;2023-06-10T10:05:20;12.43;;;5.87;;
8654;SDS011;13500;52.514;13.462;2023-06-10T10:07:50;6.27;;;5.67;;
8654;SDS011;13500;52.514;13.462;2023-06-10T10:10:19;12.43;;;6.30;;
8654;SDS011;13500;52.514;13.462;2023-06-10T10:12:52;7.50;;;6.40;;
8654;SDS011;13500;52.514;13.462;2023-06-10T10:15:23;8.30;;;6.10;;
8654;SDS011;13500;52.514;13.462;2023-06-10T10:17:53;7.93;;;5.40;;
8654;SDS011;13500;52.514;13.462;2023-06-10T10:20:24;6.83;;;5.43;;
8654;SDS011;13500;52.514;13.462;2023-06-10T10:22:55;6.63;;;5.50;;
8654;SDS011;13500;52.514;13.462;2023-06-10T10:25:26;8.03;;;5.30;;
8654;SDS011;13500;52.514;13.462;2023-06-10T10:27:59;7.50;;;5.03;;
8654;SDS011;13500;52.514;13.462;2023-06-10T10:30:30;8.33;;;5.27;;
8654;SDS011;13500;52.514;13.462;2023-06-10T10:33:00;4.37;;;3.97;;
8654;SDS011;13500;52.514;13.462;2023-06-10T10:35:36;4.53;;;4.13;;
8654;SDS011;13500;52.514;13.462;2023-06-10T10:38:04;4.97;;;4.50;;
8654;SDS011;13500;52.514;13.462;2023-06-10T10:40:32;5.00;;;4.50;;
8654;SDS011;13500;52.514;13.462;2023-06-10T10:43:02;4.73;;;4.13;;
8654;SDS011;13500;52.514;13.462;2023-06-10T10:45:30;4.57;;;3.70;;
8654;SDS011;13500;52.514;13.462;2023-06-10T10:47:59;4.70;;;4.00;;
8654;SDS011;13500;52.514;13.462;2023-06-10T10:50:33;4.30;;;3.90;;
8654;SDS011;13500;52.514;13.462;2023-06-10T10:53:01;4.40;;;3.80;;
8654;SDS011;13500;52.514;13.462;2023-06-10T10:55:31;4.30;;;3.70;;
8654;SDS011;13500;52.514;13.462;2023-06-10T10:58:00;5.40;;;3.50;;
8654;SDS011;13500;52.514;13.462;2023-06-10T11:00:32;5.37;;;4.00;;
8654;SDS011;13500;52.514;13.462;2023-06-10T11:03:05;3.93;;;3.53;;
8654;SDS011;13500;52.514;13.462;2023-06-10T11:05:37;4.13;;;3.67;;
8654;SDS011;13500;52.514;13.462;2023-06-10T11:08:07;3.90;;;3.60;;
8654;SDS011;13500;52.514;13.462;2023-06-10T11:10:36;4.10;;;3.70;;
8654;SDS011;13500;52.514;13.462;2023-06-10T11:13:07;4.37;;;3.97;;
8654;SDS011;13500;52.514;13.462;2023-06-10T11:15:39;8.10;;;4.27;;
8654;SDS011;13500;52.514;13.462;2023-06-10T11:18:11;4.70;;;4.30;;
8654;SDS011;13500;52.514;13.462;2023-06-10T11:20:56;4.57;;;4.17;;
8654;SDS011;13500;52.514;13.462;2023-06-10T11:23:39;4.37;;;3.83;;
8654;SDS011;13500;52.514;13.462;2023-06-10T11:26:15;4.50;;;4.10;;
8654;SDS011;13500;52.514;13.462;2023-06-10T11:29:02;4.50;;;4.10;;
8654;SDS011;13500;52.514;13.462;2023-06-10T11:31:31;4.70;;;4.30;;
8654;SDS011;13500;52.514;13.462;2023-06-10T11:34:01;5.10;;;4.53;;
8654;SDS011;13500;52.514;13.462;2023-06-10T11:36:31;5.67;;;4.20;;
8654;SDS011;13500;52.514;13.462;2023-06-10T11:39:00;4.57;;;4.00;;
8654;SDS011;13500;52.514;13.462;2023-06-10T11:41:29;5.53;;;4.63;;
8654;SDS011;13500;52.514;13.462;2023-06-10T11:44:02;5.20;;;4.10;;
8654;SDS011;13500;52.514;13.462;2023-06-10T11:46:30;5.90;;;4.03;;
8654;SDS011;13500;52.514;13.462;2023-06-10T11:48:59;5.50;;;4.27;;
8654;SDS011;13500;52.514;13.462;2023-06-10T11:51:29;7.13;;;4.63;;
8654;SDS011;13500;52.514;13.462;2023-06-10T11:53:59;4.73;;;4.30;;
8654;SDS011;13500;52.514;13.462;2023-06-10T11:56:27;4.73;;;4.33;;
8654;SDS011;13500;52.514;13.462;2023-06-10T11:58:56;5.80;;;5.20;;
8654;SDS011;13500;52.514;13.462;2023-06-10T12:01:28;6.63;;;6.13;;
8654;SDS011;13500;52.514;13.462;2023-06-10T12:03:57;10.13;;;5.20;;
8654;SDS011;13500;52.514;13.462;2023-06-10T12:06:25;5.60;;;4.30;;
8654;SDS011;13500;52.514;13.462;2023-06-10T12:08:54;4.70;;;4.20;;
8654;SDS011;13500;52.514;13.462;2023-06-10T12:11:36;4.20;;;3.80;;
8654;SDS011;13500;52.514;13.462;2023-06-10T12:14:04;6.57;;;4.60;;
8654;SDS011;13500;52.514;13.462;2023-06-10T12:16:33;5.00;;;4.50;;
8654;SDS011;13500;52.514;13.462;2023-06-10T12:19:02;6.90;;;4.77;;
8654;SDS011;13500;52.514;13.462;2023-06-10T12:21:31;5.60;;;4.80;;
8654;SDS011;13500;52.514;13.462;2023-06-10T12:24:03;5.87;;;5.27;;
8654;SDS011;13500;52.514;13.462;2023-06-10T12:26:36;5.87;;;5.30;;
8654;SDS011;13500;52.514;13.462;2023-06-10T12:29:20;6.57;;;5.23;;
8654;SDS011;13500;52.514;13.462;2023-06-10T12:31:55;8.87;;;5.20;;
8654;SDS011;13500;52.514;13.462;2023-06-10T12:34:28;5.97;;;5.37;;
8654;SDS011;13500;52.514;13.462;2023-06-10T12:36:57;7.33;;;5.03;;
8654;SDS011;13500;52.514;13.462;2023-06-10T12:39:25;6.13;;;5.53;;
8654;SDS011;13500;52.514;13.462;2023-06-10T12:41:53;5.80;;;5.27;;
8654;SDS011;13500;52.514;13.462;2023-06-10T12:44:33;7.13;;;5.90;;
8654;SDS011;13500;52.514;13.462;2023-06-10T12:47:08;6.53;;;5.63;;
8654;SDS011;13500;52.514;13.462;2023-06-10T12:49:38;7.23;;;5.87;;
8654;SDS011;13500;52.514;13.462;2023-06-10T12:52:07;6.70;;;6.03;;
8654;SDS011;13500;52.514;13.462;2023-06-10T12:54:34;8.43;;;6.77;;
8654;SDS011;13500;52.514;13.462;2023-06-10T12:57:03;6.53;;;5.93;;
8654;SDS011;13500;52.514;13.462;2023-06-10T12:59:31;9.33;;;6.10;;
8654;SDS011;13500;52.514;13.462;2023-06-10T13:01:59;6.90;;;5.93;;
8654;SDS011;13500;52.514;13.462;2023-06-10T13:04:28;8.20;;;7.40;;
8654;SDS011;13500;52.514;13.462;2023-06-10T13:06:57;7.37;;;6.77;;
8654;SDS011;13500;52.514;13.462;2023-06-10T13:09:25;7.20;;;6.43;;
8654;SDS011;13500;52.514;13.462;2023-06-10T13:11:54;7.30;;;6.53;;
8654;SDS011;13500;52.514;13.462;2023-06-10T13:14:22;9.43;;;6.00;;
8654;SDS011;13500;52.514;13.462;2023-06-10T13:16:50;8.20;;;6.07;;
8654;SDS011;13500;52.514;13.462;2023-06-10T13:19:18;8.47;;;6.23;;
8654;SDS011;13500;52.514;13.462;2023-06-10T13:21:49;7.87;;;6.77;;
8654;SDS011;13500;52.514;13.462;2023-06-10T13:24:17;7.30;;;6.13;;
8654;SDS011;13500;52.514;13.462;2023-06-10T13:26:46;9.40;;;6.77;;
8654;SDS011;13500;52.514;13.462;2023-06-10T13:29:15;7.00;;;6.30;;
8654;SDS011;13500;52.514;13.462;2023-06-10T13:31:43;7.57;;;5.80;;
8654;SDS011;13500;52.514;13.462;2023-06-10T13:34:11;6.73;;;6.03;;
8654;SDS011;13500;52.514;13.462;2023-06-10T13:36:39;7.23;;;6.10;;
8654;SDS011;13500;52.514;13.462;2023-06-10T13:39:08;8.07;;;5.93;;
8654;SDS011;13500;52.514;13.462;2023-06-10T13:41:36;7.07;;;6.00;;
8654;SDS011;13500;52.514;13.462;2023-06-10T13:44:04;7.07;;;6.43;;
8654;SDS011;13500;52.514;13.462;2023-06-10T13:46:32;8.37;;;5.90;;
8654;SDS011;13500;52.514;13.462;2023-06-10T13:49:00;6.60;;;5.90;;
8654;SDS011;13500;52.514;13.462;2023-06-10T13:51:28;10.83;;;6.07;;
8654;SDS011;13500;52.514;13.462;2023-06-10T13:53:56;6.87;;;6.20;;
8654;SDS011;13500;52.514;13.462;2023-06-10T13:56:26;8.63;;;5.60;;
8654;SDS011;13500;52.514;13.462;2023-06-10T13:58:54;6.27;;;5.67;;
8654;SDS011;13500;52.514;13.462;2023-06-10T14:01:22;7.33;;;5.53;;
8654;SDS011;13500;52.514;13.462;2023-06-10T14:03:50;7.90;;;6.00;;
8654;SDS011;13500;52.514;13.462;2023-06-10T14:06:18;7.87;;;6.10;;
8654;SDS011;13500;52.514;13.462;2023-06-10T14:08:46;9.87;;;6.50;;
8654;SDS011;13500;52.514;13.462;2023-06-10T14:11:14;7.07;;;5.07;;
8654;SDS011;13500;52.514;13.462;2023-06-10T14:13:43;9.53;;;7.07;;
8654;SDS011;13500;52.514;13.462;2023-06-10T14:16:11;5.60;;;5.10;;
8654;SDS011;13500;52.514;13.462;2023-06-10T14:18:39;7.23;;;5.10;;
8654;SDS011;13500;52.514;13.462;2023-06-10T14:21:07;7.23;;;5.40;;
8654;SDS011;13500;52.514;13.462;2023-06-10T14:23:35;8.17;;;5.40;;
8654;SDS011;13500;52.514;13.462;2023-06-10T14:26:03;5.70;;;5.20;;
8654;SDS011;13500;52.514;13.462;2023-06-10T14:28:33;6.23;;;5.57;;
8654;SDS011;13500;52.514;13.462;2023-06-10T14:31:03;7.33;;;5.20;;
8654;SDS011;13500;52.514;13.462;2023-06-10T14:33:31;9.97;;;5.30;;
8654;SDS011;13500;52.514;13.462;2023-06-10T14:35:59;7.67;;;5.20;;
8654;SDS011;13500;52.514;13.462;2023-06-10T14:38:27;6.20;;;5.23;;
8654;SDS011;13500;52.514;13.462;2023-06-10T14:40:55;7.07;;;5.30;;
8654;SDS011;13500;52.514;13.462;2023-06-10T14:43:23;6.07;;;4.87;;
8654;SDS011;13500;52.514;13.462;2023-06-10T14:45:51;6.20;;;5.00;;
8654;SDS011;13500;52.514;13.462;2023-06-10T14:48:20;5.57;;;5.07;;
8654;SDS011;13500;52.514;13.462;2023-06-10T14:50:48;5.37;;;4.83;;
8654;SDS011;13500;52.514;13.462;2023-06-10T14:53:17;7.17;;;4.83;;
8654;SDS011;13500;52.514;13.462;2023-06-10T14:55:45;5.30;;;4.80;;
8654;SDS011;13500;52.514;13.462;2023-06-10T14:58:13;5.90;;;5.30;;
8654;SDS011;13500;52.514;13.462;2023-06-10T15:00:41;8.17;;;5.53;;